createdAt,value
2023-02-22T00:02:10.731Z,30.00
2023-02-22T00:07:12.422Z,31.67
2023-02-22T00:12:14.191Z,30.65
2023-02-22T00:17:16.202Z,30.52
2023-02-22T00:22:19.535Z,29.63
2023-02-22T00:27:21.131Z,29.48
2023-02-22T00:32:23.402Z,29.60
2023-02-22T00:37:24.884Z,29.27
2023-02-22T00:42:26.381Z,29.60
2023-02-22T00:47:28.329Z,28.75
2023-02-22T00:52:29.906Z,28.98
2023-02-22T00:57:31.721Z,27.35
2023-02-22T01:02:33.203Z,27.10
2023-02-22T01:07:35.165Z,25.00
2023-02-22T01:12:37.037Z,26.42
2023-02-22T01:17:40.121Z,29.02
2023-02-22T01:22:44.404Z,29.83
2023-02-22T01:27:46.248Z,30.00
2023-02-22T01:32:47.922Z,31.73
2023-02-22T01:37:49.590Z,28.80
2023-02-22T01:42:53.500Z,28.77
2023-02-22T01:48:11.096Z,28.85
2023-02-22T01:53:18.044Z,28.83
2023-02-22T01:58:21.820Z,29.83
2023-02-22T02:03:29.313Z,30.85
2023-02-22T02:08:49.605Z,31.65
2023-02-22T02:13:56.898Z,31.17
2023-02-22T02:18:58.379Z,31.90
2023-02-22T02:24:39.618Z,32.17
2023-02-22T02:29:46.696Z,31.52
2023-02-22T02:35:00.260Z,31.97
2023-02-22T02:40:29.364Z,31.02
2023-02-22T02:45:39.247Z,28.13
2023-02-22T02:50:46.836Z,28.17
2023-02-22T02:55:48.491Z,29.13
2023-02-22T03:00:55.532Z,27.52
2023-02-22T03:06:34.560Z,27.67
2023-02-22T03:12:02.152Z,26.60
2023-02-22T03:17:26.363Z,26.47
2023-02-22T03:22:36.154Z,25.27
2023-02-22T03:27:43.597Z,26.38
2023-02-22T03:32:51.485Z,26.58
2023-02-22T03:43:09.137Z,27.05
2023-02-22T03:48:23.751Z,27.67
2023-02-22T03:53:25.514Z,27.67
2023-02-22T03:58:31.581Z,27.02
2023-02-22T04:03:33.063Z,28.45
2023-02-22T04:08:35.137Z,28.08
2023-02-22T04:13:36.654Z,27.27
2023-02-22T04:18:38.167Z,29.25
2023-02-22T04:23:39.695Z,28.05
2023-02-22T04:28:41.230Z,27.88
2023-02-22T04:33:42.799Z,29.73
2023-02-22T04:38:44.457Z,28.13
2023-02-22T04:43:46.261Z,27.02
2023-02-22T04:48:47.757Z,28.52
2023-02-22T04:53:49.387Z,27.95
2023-02-22T04:58:50.865Z,30.30
2023-02-22T05:03:52.389Z,28.63
2023-02-22T05:08:53.980Z,28.90
2023-02-22T05:13:55.521Z,28.23
2023-02-22T05:18:57.050Z,28.02
2023-02-22T05:23:58.592Z,27.30
2023-02-22T05:29:00.097Z,26.02
2023-02-22T05:34:01.643Z,26.77
2023-02-22T05:39:03.224Z,25.02
2023-02-22T05:44:04.941Z,26.15
2023-02-22T05:49:06.565Z,24.27
2023-02-22T05:54:08.295Z,23.98
2023-02-22T05:59:09.805Z,23.60
2023-02-22T06:04:11.332Z,25.00
2023-02-22T06:09:12.805Z,25.75
2023-02-22T06:14:14.373Z,24.67
2023-02-22T06:19:15.934Z,24.50
2023-02-22T06:24:17.967Z,25.73
2023-02-22T06:29:19.502Z,26.75
2023-02-22T06:34:24.332Z,26.65
2023-02-22T06:39:25.981Z,27.70
2023-02-22T06:44:27.497Z,25.50
2023-02-22T06:49:28.975Z,28.77
2023-02-22T06:54:30.478Z,30.15
2023-02-22T06:59:32.031Z,30.65
2023-02-22T07:04:34.218Z,30.90
2023-02-22T07:09:36.603Z,31.05
2023-02-22T07:14:38.146Z,30.73
2023-02-22T07:19:39.690Z,31.00
2023-02-22T07:24:41.219Z,31.73
2023-02-22T07:29:43.796Z,32.60
2023-02-22T07:34:45.323Z,33.22
2023-02-22T07:39:46.891Z,32.13
2023-02-22T07:44:48.386Z,32.75
2023-02-22T07:49:50.327Z,32.35
2023-02-22T07:54:51.836Z,33.08
2023-02-22T07:59:53.669Z,32.92
2023-02-22T08:04:55.225Z,35.53
2023-02-22T08:09:56.731Z,33.90
2023-02-22T08:14:58.287Z,32.05
2023-02-22T08:19:59.856Z,33.08
2023-02-22T08:25:01.408Z,35.38
2023-02-22T08:30:02.968Z,35.83
2023-02-22T08:35:04.970Z,33.72
2023-02-22T08:40:06.954Z,34.33
2023-02-22T08:45:08.914Z,33.13
2023-02-22T08:50:20.669Z,35.92
2023-02-22T08:55:24.460Z,34.97
2023-02-22T09:00:26.123Z,35.10
2023-02-22T09:05:29.787Z,34.00
2023-02-22T09:10:34.668Z,33.50
2023-02-22T09:15:36.292Z,33.60
2023-02-22T09:20:37.968Z,33.58
2023-02-22T09:25:40.898Z,34.10
2023-02-22T09:30:43.120Z,33.85
2023-02-22T09:35:46.592Z,33.17
2023-02-22T09:41:07.496Z,33.83
2023-02-22T09:46:28.206Z,31.02
2023-02-22T09:51:45.212Z,32.30
2023-02-22T09:56:50.134Z,32.35
2023-02-22T10:02:00.474Z,30.90
2023-02-22T10:07:26.143Z,33.60
2023-02-22T10:12:44.181Z,31.65
2023-02-22T10:18:20.826Z,30.92
2023-02-22T10:23:34.436Z,29.73
2023-02-22T10:28:43.877Z,34.00
2023-02-22T10:33:48.636Z,31.45
2023-02-22T10:38:58.872Z,28.48
2023-02-22T10:44:02.051Z,30.52
2023-02-22T10:49:08.869Z,30.48
2023-02-22T10:54:13.418Z,29.43
2023-02-22T10:59:32.944Z,32.67
2023-02-22T11:04:52.522Z,33.92
2023-02-22T11:09:59.667Z,34.75
2023-02-22T11:15:23.461Z,34.28
2023-02-22T11:20:34.770Z,35.28
2023-02-22T11:25:39.685Z,32.88
2023-02-22T11:30:44.486Z,30.70
2023-02-22T11:35:52.655Z,34.85
2023-02-22T11:41:15.250Z,33.90
2023-02-22T11:46:22.715Z,34.33
2023-02-22T11:51:36.651Z,35.20
2023-02-22T11:56:45.070Z,34.17
2023-02-22T12:01:54.134Z,34.42
2023-02-22T12:07:37.165Z,33.03
2023-02-22T12:12:50.602Z,34.83
2023-02-22T12:18:00.083Z,32.42
2023-02-22T12:23:40.682Z,33.60
2023-02-22T12:28:47.741Z,31.30
2023-02-22T12:34:02.359Z,30.25
2023-02-22T12:39:40.963Z,29.45
2023-02-22T12:44:52.212Z,28.77
2023-02-22T12:50:05.608Z,30.00
2023-02-22T12:55:41.910Z,30.10
2023-02-22T13:00:51.062Z,29.23
2023-02-22T13:06:20.776Z,29.95
2023-02-22T13:11:25.317Z,29.58
2023-02-22T13:16:35.464Z,32.30
2023-02-22T13:21:49.572Z,33.45
2023-02-22T13:26:55.664Z,30.65
2023-02-22T13:32:21.769Z,30.55
2023-02-22T13:37:54.492Z,29.65
2023-02-22T13:43:17.876Z,30.13
2023-02-22T13:48:54.654Z,29.75
2023-02-22T13:54:27.495Z,31.95
2023-02-22T13:59:36.540Z,29.88
2023-02-22T14:04:40.631Z,31.35
2023-02-22T14:09:47.192Z,29.70
2023-02-22T14:15:28.118Z,29.60
2023-02-22T14:20:37.347Z,28.83
2023-02-22T14:25:41.544Z,28.52
2023-02-22T14:30:43.182Z,27.88
2023-02-22T14:35:50.221Z,27.73
2023-02-22T14:40:53.682Z,27.27
2023-02-22T14:45:58.614Z,27.40
2023-02-22T14:51:20.180Z,27.85
2023-02-22T14:56:23.180Z,27.77
2023-02-22T15:07:01.007Z,25.83
2023-02-22T15:12:02.467Z,26.33
2023-02-22T15:17:08.936Z,27.25
2023-02-22T15:22:24.049Z,25.25
2023-02-22T15:27:26.214Z,26.63
2023-02-22T15:32:32.194Z,25.90
2023-02-22T15:37:33.762Z,26.65
2023-02-22T15:42:58.417Z,24.95
2023-02-22T15:48:00.168Z,25.70
2023-02-22T15:53:03.177Z,25.70
2023-02-22T15:58:10.814Z,25.23
2023-02-22T16:03:19.904Z,25.20
2023-02-22T16:08:31.154Z,25.27
2023-02-22T16:13:35.111Z,24.67
2023-02-22T16:18:41.372Z,24.35
2023-02-22T16:23:49.368Z,25.55
2023-02-22T16:29:00.168Z,25.05
2023-02-22T16:34:03.454Z,25.83
2023-02-22T16:39:07.196Z,26.55
2023-02-22T16:44:08.968Z,28.13
2023-02-22T16:49:12.094Z,27.23
2023-02-22T16:54:18.988Z,27.38
2023-02-22T16:59:20.594Z,26.50
2023-02-22T17:04:28.647Z,26.73
2023-02-22T17:09:30.302Z,26.90
2023-02-22T17:14:34.944Z,26.98
2023-02-22T17:19:37.698Z,26.80
2023-02-22T17:24:39.317Z,27.98
2023-02-22T17:29:45.131Z,27.95
2023-02-22T17:34:46.668Z,30.33
2023-02-22T17:39:48.248Z,30.73
2023-02-22T17:44:49.774Z,31.15
2023-02-22T17:49:52.924Z,32.85
2023-02-22T17:54:54.531Z,34.05
2023-02-22T17:59:56.759Z,36.53
2023-02-22T18:04:58.277Z,37.65
2023-02-22T18:10:00.335Z,38.05
2023-02-22T18:15:01.834Z,40.95
2023-02-22T18:20:14.045Z,40.92
2023-02-22T18:25:15.833Z,42.22
2023-02-22T18:30:18.316Z,43.58
2023-02-22T18:35:19.911Z,44.08
2023-02-22T18:40:21.443Z,45.70
2023-02-22T18:45:22.975Z,48.72
2023-02-22T18:50:24.437Z,49.22
2023-02-22T18:55:25.928Z,48.67
2023-02-22T19:00:28.697Z,46.08
2023-02-22T19:05:32.648Z,41.50
2023-02-22T19:10:34.232Z,42.00
2023-02-22T19:15:35.779Z,41.17
2023-02-22T19:20:37.252Z,42.03
2023-02-22T19:25:41.067Z,40.47
2023-02-22T19:30:42.839Z,40.72
2023-02-22T19:35:48.115Z,39.67
2023-02-22T19:40:50.004Z,40.40
2023-02-22T19:45:51.559Z,40.22
2023-02-22T19:50:57.761Z,42.95
2023-02-22T19:55:59.343Z,42.70
2023-02-22T20:01:00.886Z,42.33
2023-02-22T20:06:02.463Z,42.75
2023-02-22T20:11:05.780Z,45.00
2023-02-22T20:16:09.953Z,43.20
2023-02-22T20:21:18.477Z,43.90
2023-02-22T20:26:22.484Z,44.17
2023-02-22T20:31:24.716Z,43.28
2023-02-22T20:36:28.317Z,45.50
2023-02-22T20:41:32.854Z,45.83
2023-02-22T20:46:37.562Z,47.72
2023-02-22T20:51:40.284Z,48.03
2023-02-22T20:56:45.213Z,49.47
2023-02-22T21:01:52.917Z,49.35
2023-02-22T21:11:55.840Z,49.25
2023-02-22T21:16:57.377Z,52.00
2023-02-22T21:22:01.423Z,51.75
2023-02-22T21:27:03.467Z,51.72
2023-02-22T21:32:05.280Z,52.00
2023-02-22T21:37:08.294Z,53.65
2023-02-22T21:42:09.846Z,53.63
2023-02-22T21:47:11.306Z,51.33
2023-02-22T21:52:13.027Z,52.40
2023-02-22T21:57:14.961Z,51.42
2023-02-22T22:02:16.469Z,51.63
2023-02-22T22:07:18.838Z,53.33
2023-02-22T22:12:26.010Z,55.97
2023-02-22T22:17:29.808Z,53.80
2023-02-22T22:22:31.423Z,53.63
2023-02-22T22:27:32.908Z,53.22
2023-02-22T22:32:34.987Z,53.72
2023-02-22T22:37:36.561Z,53.08
2023-02-22T22:42:38.077Z,52.67
2023-02-22T22:47:45.866Z,52.60
2023-02-22T22:57:48.809Z,50.42
2023-02-22T23:02:50.868Z,50.95
2023-02-22T23:07:53.060Z,48.97
2023-02-22T23:12:56.441Z,49.70
2023-02-22T23:17:59.259Z,48.20
2023-02-22T23:23:02.755Z,48.63
2023-02-22T23:28:04.242Z,46.45
2023-02-22T23:33:05.742Z,46.92
2023-02-22T23:38:08.339Z,45.60
2023-02-22T23:43:12.028Z,45.30
2023-02-22T23:48:13.557Z,45.90
2023-02-22T23:53:15.325Z,45.63
2023-02-22T23:58:16.854Z,46.67
